No particular awareness of the weather is required.    There are no Weather-warnings


Meteo18 Weather Cam more information Meteo18 Weather Cam


Thunder radar more information blitzortung!


Rain radar more information rain snow radar


Visit our other weather sites:

Template documentation
and downloads

And another site



Weather Underground History page Text

Daily Summary for February 23, 2018 Units:  Both    English   Metric
« Previous Day
Next Day »
Daily Weekly Monthly Yearly Custom
  High: Low: Average:
Temperature: TemperatureC °F /  -17.8 °C -1.8 °F /  -18.8 °C 0.2 °F /  -17.7 °C
Dew Point: DewpointC °F /  -17.8 °C -5.7 °F /  -20.9 °C -4.4 °F /  -20.2 °C
Humidity: Humidity % 63 % 71 %
Wind Speed: WindSpeedKMH mph /  0 km/h - 9.4 mph /  15.1 km/h
Wind Gust: WindSpeedGustKMH mph /  0 km/h - -
Wind:- - NE
Pressure: PressurehPa in /  0 hPa 1012.1 in /  34269.7 hPa -
Precipitation: 0.0 in /  0 mm    
Historical Graphs
 
 
Tabular Data for February 23, 2018
Time Temperature Dew Point Pressure Wind Wind Speed Wind Gust Humidity Rainfall Rate (Hourly)
TemperatureC °F /  -17.8 °C DewpointC °F /  -17.8 °C PressurehPa in /  0 hPa Calm     Humidity % HourlyPrecipMM in /  0 mm
00:02 1.2 °F /  -17.1 °C -5.1 °F /  -20.6 °C 1013.4 in /  34313.7 hPa NNE 14.3 mph /  23 km/h 24.1 mph /  38.8 km/h 63 % 0.0 in /  0 mm
00:08 1.2 °F /  -17.1 °C -4.9 °F /  -20.5 °C 1013.4 in /  34313.7 hPa NNE 13.0 mph /  20.9 km/h 22.5 mph /  36.2 km/h 64 % 0.0 in /  0 mm
00:14 1.1 °F /  -17.2 °C -5.0 °F /  -20.6 °C 1013.4 in /  34313.7 hPa NE 14.3 mph /  23 km/h 16.1 mph /  25.9 km/h 64 % 0.0 in /  0 mm
00:20 1.1 °F /  -17.2 °C -5.0 °F /  -20.6 °C 1013.4 in /  34313.7 hPa NNE 16.3 mph /  26.2 km/h 22.5 mph /  36.2 km/h 64 % 0.0 in /  0 mm
00:26 1.1 °F /  -17.2 °C -5.0 °F /  -20.6 °C 1013.4 in /  34313.7 hPa NNE 16.3 mph /  26.2 km/h 20.9 mph /  33.6 km/h 64 % 0.0 in /  0 mm
00:32 1.0 °F /  -17.2 °C -4.8 °F /  -20.4 °C 1013.4 in /  34313.7 hPa NNE 13.0 mph /  20.9 km/h 22.5 mph /  36.2 km/h 65 % 0.0 in /  0 mm
00:38 1.0 °F /  -17.2 °C -5.0 °F /  -20.6 °C 1013.4 in /  34313.7 hPa NNE 17.7 mph /  28.5 km/h 24.1 mph /  38.8 km/h 64 % 0.0 in /  0 mm
00:44 1.0 °F /  -17.2 °C -5.0 °F /  -20.6 °C 1013.4 in /  34313.7 hPa ESE 11.1 mph /  17.9 km/h 29.0 mph /  46.7 km/h 64 % 0.0 in /  0 mm
00:50 0.9 °F /  -17.3 °C -5.1 °F /  -20.6 °C 1013.4 in /  34313.7 hPa NE 19.5 mph /  31.4 km/h 22.5 mph /  36.2 km/h 64 % 0.0 in /  0 mm
00:56 0.9 °F /  -17.3 °C -4.9 °F /  -20.5 °C 1013.4 in /  34313.7 hPa NE 9.7 mph /  15.6 km/h 22.5 mph /  36.2 km/h 65 % 0.0 in /  0 mm
01:02 0.9 °F /  -17.3 °C -4.9 °F /  -20.5 °C 1013.4 in /  34313.7 hPa NE 14.3 mph /  23 km/h 17.7 mph /  28.5 km/h 65 % 0.0 in /  0 mm
01:08 0.9 °F /  -17.3 °C -4.9 °F /  -20.5 °C 1013.4 in /  34313.7 hPa NNE 7.9 mph /  12.7 km/h 22.5 mph /  36.2 km/h 65 % 0.0 in /  0 mm
01:14 0.9 °F /  -17.3 °C -4.9 °F /  -20.5 °C 1013.4 in /  34313.7 hPa NE 14.3 mph /  23 km/h 25.7 mph /  41.4 km/h 65 % 0.0 in /  0 mm
01:20 0.9 °F /  -17.3 °C -5.1 °F /  -20.6 °C 1013.4 in /  34313.7 hPa NE 13.0 mph /  20.9 km/h 25.7 mph /  41.4 km/h 64 % 0.0 in /  0 mm
01:26 0.9 °F /  -17.3 °C -4.9 °F /  -20.5 °C 1013.4 in /  34313.7 hPa North 11.1 mph /  17.9 km/h 20.9 mph /  33.6 km/h 65 % 0.0 in /  0 mm
01:32 0.8 °F /  -17.3 °C -5.0 °F /  -20.6 °C 1013.4 in /  34313.7 hPa ENE 14.3 mph /  23 km/h 29.0 mph /  46.7 km/h 65 % 0.0 in /  0 mm
01:38 0.8 °F /  -17.3 °C -5.0 °F /  -20.6 °C 1013.4 in /  34313.7 hPa NNE 17.7 mph /  28.5 km/h 20.9 mph /  33.6 km/h 65 % 0.0 in /  0 mm
01:44 0.8 °F /  -17.3 °C -5.0 °F /  -20.6 °C 1013.4 in /  34313.7 hPa NNE 9.7 mph /  15.6 km/h 17.7 mph /  28.5 km/h 65 % 0.0 in /  0 mm
01:50 0.8 °F /  -17.3 °C -4.8 °F /  -20.4 °C 1013.4 in /  34313.7 hPa NE 11.1 mph /  17.9 km/h 17.7 mph /  28.5 km/h 66 % 0.0 in /  0 mm
01:56 0.7 °F /  -17.4 °C -5.1 °F /  -20.6 °C 1013.4 in /  34313.7 hPa NE 14.3 mph /  23 km/h 20.9 mph /  33.6 km/h 65 % 0.0 in /  0 mm
02:02 0.7 °F /  -17.4 °C -4.9 °F /  -20.5 °C 1013.4 in /  34313.7 hPa NNE 16.3 mph /  26.2 km/h 16.3 mph /  26.2 km/h 66 % 0.0 in /  0 mm
02:08 0.7 °F /  -17.4 °C -4.9 °F /  -20.5 °C 1013.4 in /  34313.7 hPa NE 19.5 mph /  31.4 km/h 19.5 mph /  31.4 km/h 66 % 0.0 in /  0 mm
02:14 0.7 °F /  -17.4 °C -4.7 °F /  -20.4 °C 1013.4 in /  34313.7 hPa NE 14.3 mph /  23 km/h 22.5 mph /  36.2 km/h 67 % 0.0 in /  0 mm
02:20 0.6 °F /  -17.4 °C -5.0 °F /  -20.6 °C 1013.1 in /  34303.6 hPa ENE 13.0 mph /  20.9 km/h 20.9 mph /  33.6 km/h 66 % 0.0 in /  0 mm
02:27 0.6 °F /  -17.4 °C -5.0 °F /  -20.6 °C 1013.1 in /  34303.6 hPa NNE 14.3 mph /  23 km/h 22.5 mph /  36.2 km/h 66 % 0.0 in /  0 mm
02:33 0.6 °F /  -17.4 °C -5.0 °F /  -20.6 °C 1013.1 in /  34303.6 hPa NE 9.7 mph /  15.6 km/h 27.4 mph /  44.1 km/h 66 % 0.0 in /  0 mm
02:39 0.5 °F /  -17.5 °C -4.9 °F /  -20.5 °C 1013.1 in /  34303.6 hPa NNE 20.9 mph /  33.6 km/h 20.9 mph /  33.6 km/h 67 % 0.0 in /  0 mm
02:45 0.4 °F /  -17.6 °C -5.0 °F /  -20.6 °C 1012.8 in /  34293.4 hPa NNE 16.3 mph /  26.2 km/h 19.3 mph /  31.1 km/h 67 % 0.0 in /  0 mm
02:51 0.4 °F /  -17.6 °C -5.0 °F /  -20.6 °C 1012.8 in /  34293.4 hPa NE 13.0 mph /  20.9 km/h 19.3 mph /  31.1 km/h 67 % 0.0 in /  0 mm
02:57 0.4 °F /  -17.6 °C -4.8 °F /  -20.4 °C 1012.8 in /  34293.4 hPa NE 11.1 mph /  17.9 km/h 19.3 mph /  31.1 km/h 68 % 0.0 in /  0 mm
03:03 0.3 °F /  -17.6 °C -5.1 °F /  -20.6 °C 1012.8 in /  34293.4 hPa NE 17.7 mph /  28.5 km/h 27.4 mph /  44.1 km/h 67 % 0.0 in /  0 mm
03:09 0.3 °F /  -17.6 °C -4.9 °F /  -20.5 °C 1012.8 in /  34293.4 hPa NNE 9.7 mph /  15.6 km/h 20.9 mph /  33.6 km/h 68 % 0.0 in /  0 mm
03:15 0.3 °F /  -17.6 °C -4.9 °F /  -20.5 °C 1012.8 in /  34293.4 hPa NNE 11.1 mph /  17.9 km/h 27.4 mph /  44.1 km/h 68 % 0.0 in /  0 mm
03:21 0.2 °F /  -17.7 °C -4.8 °F /  -20.4 °C 1012.8 in /  34293.4 hPa NE 7.9 mph /  12.7 km/h 19.3 mph /  31.1 km/h 69 % 0.0 in /  0 mm
03:27 0.2 °F /  -17.7 °C -4.6 °F /  -20.3 °C 1012.8 in /  34293.4 hPa NNE 17.7 mph /  28.5 km/h 22.5 mph /  36.2 km/h 70 % 0.0 in /  0 mm
03:33 0.1 °F /  -17.7 °C -4.9 °F /  -20.5 °C 1012.8 in /  34293.4 hPa ENE 6.4 mph /  10.3 km/h 20.9 mph /  33.6 km/h 69 % 0.0 in /  0 mm
03:39 0.1 °F /  -17.7 °C -4.7 °F /  -20.4 °C 1012.8 in /  34293.4 hPa NNE 13.0 mph /  20.9 km/h 22.5 mph /  36.2 km/h 70 % 0.0 in /  0 mm
03:45 0.0 °F /  -17.8 °C -4.8 °F /  -20.4 °C 1012.8 in /  34293.4 hPa ENE 17.7 mph /  28.5 km/h 22.5 mph /  36.2 km/h 70 % 0.0 in /  0 mm
03:51 0.0 °F /  -17.8 °C -5.0 °F /  -20.6 °C 1012.8 in /  34293.4 hPa NNW 17.7 mph /  28.5 km/h 22.5 mph /  36.2 km/h 69 % 0.0 in /  0 mm
03:57 -0.1 °F /  -17.8 °C -4.9 °F /  -20.5 °C 1012.8 in /  34293.4 hPa NNE 14.3 mph /  23 km/h 19.3 mph /  31.1 km/h 70 % 0.0 in /  0 mm
04:03 -0.1 °F /  -17.8 °C -4.9 °F /  -20.5 °C 1012.4 in /  34279.9 hPa NE 14.3 mph /  23 km/h 24.1 mph /  38.8 km/h 70 % 0.0 in /  0 mm
04:09 -0.2 °F /  -17.9 °C -5.0 °F /  -20.6 °C 1012.8 in /  34293.4 hPa NE 9.7 mph /  15.6 km/h 20.9 mph /  33.6 km/h 70 % 0.0 in /  0 mm
04:15 -0.2 °F /  -17.9 °C -5.0 °F /  -20.6 °C 1012.4 in /  34279.9 hPa North 13.0 mph /  20.9 km/h 20.9 mph /  33.6 km/h 70 % 0.0 in /  0 mm
04:21 -0.3 °F /  -17.9 °C -5.1 °F /  -20.6 °C 1012.8 in /  34293.4 hPa NE 14.3 mph /  23 km/h 24.1 mph /  38.8 km/h 70 % 0.0 in /  0 mm
04:27 -0.3 °F /  -17.9 °C -5.1 °F /  -20.6 °C 1012.4 in /  34279.9 hPa NE 11.1 mph /  17.9 km/h 19.3 mph /  31.1 km/h 70 % 0.0 in /  0 mm
04:33 -0.3 °F /  -17.9 °C -4.9 °F /  -20.5 °C 1012.4 in /  34279.9 hPa NE 17.7 mph /  28.5 km/h 22.5 mph /  36.2 km/h 71 % 0.0 in /  0 mm
04:39 -0.4 °F /  -18 °C -4.8 °F /  -20.4 °C 1012.4 in /  34279.9 hPa NE 20.9 mph /  33.6 km/h 20.9 mph /  33.6 km/h 72 % 0.0 in /  0 mm
04:45 -0.4 °F /  -18 °C -5.0 °F /  -20.6 °C 1012.4 in /  34279.9 hPa NNE 13.0 mph /  20.9 km/h 16.1 mph /  25.9 km/h 71 % 0.0 in /  0 mm
04:51 -0.5 °F /  -18.1 °C -5.1 °F /  -20.6 °C 1012.4 in /  34279.9 hPa NE 11.1 mph /  17.9 km/h 20.9 mph /  33.6 km/h 71 % 0.0 in /  0 mm
04:57 -0.6 °F /  -18.1 °C -5.2 °F /  -20.7 °C 1012.4 in /  34279.9 hPa NNE 14.3 mph /  23 km/h 25.7 mph /  41.4 km/h 71 % 0.0 in /  0 mm
05:03 -0.6 °F /  -18.1 °C -5.0 °F /  -20.6 °C 1012.4 in /  34279.9 hPa NE 14.3 mph /  23 km/h 16.1 mph /  25.9 km/h 72 % 0.0 in /  0 mm
05:09 -0.7 °F /  -18.2 °C -5.1 °F /  -20.6 °C 1012.4 in /  34279.9 hPa NNE 9.7 mph /  15.6 km/h 16.1 mph /  25.9 km/h 72 % 0.0 in /  0 mm
05:15 -0.7 °F /  -18.2 °C -5.3 °F /  -20.7 °C 1012.4 in /  34279.9 hPa ENE 6.4 mph /  10.3 km/h 22.5 mph /  36.2 km/h 71 % 0.0 in /  0 mm
05:21 -0.8 °F /  -18.2 °C -5.2 °F /  -20.7 °C 1012.4 in /  34279.9 hPa NNE 11.1 mph /  17.9 km/h 17.7 mph /  28.5 km/h 72 % 0.0 in /  0 mm
05:27 -0.8 °F /  -18.2 °C -5.2 °F /  -20.7 °C 1012.4 in /  34279.9 hPa ENE 6.4 mph /  10.3 km/h 19.3 mph /  31.1 km/h 72 % 0.0 in /  0 mm
05:33 -0.9 °F /  -18.3 °C -5.1 °F /  -20.6 °C 1012.4 in /  34279.9 hPa NE 4.7 mph /  7.6 km/h 17.7 mph /  28.5 km/h 73 % 0.0 in /  0 mm
05:39 -0.9 °F /  -18.3 °C -5.1 °F /  -20.6 °C 1012.4 in /  34279.9 hPa NE 17.7 mph /  28.5 km/h 20.9 mph /  33.6 km/h 73 % 0.0 in /  0 mm
05:45 -0.9 °F /  -18.3 °C -5.1 °F /  -20.6 °C 1012.4 in /  34279.9 hPa NNE 11.1 mph /  17.9 km/h 20.9 mph /  33.6 km/h 73 % 0.0 in /  0 mm
05:51 -1.0 °F /  -18.3 °C -5.2 °F /  -20.7 °C 1012.4 in /  34279.9 hPa NNE 13.0 mph /  20.9 km/h 16.1 mph /  25.9 km/h 73 % 0.0 in /  0 mm
05:57 -1.0 °F /  -18.3 °C -5.2 °F /  -20.7 °C 1012.4 in /  34279.9 hPa East 11.1 mph /  17.9 km/h 16.1 mph /  25.9 km/h 73 % 0.0 in /  0 mm
06:03 -1.1 °F /  -18.4 °C -5.3 °F /  -20.7 °C 1012.4 in /  34279.9 hPa NE 13.0 mph /  20.9 km/h 17.7 mph /  28.5 km/h 73 % 0.0 in /  0 mm
06:09 -1.1 °F /  -18.4 °C -5.3 °F /  -20.7 °C 1012.4 in /  34279.9 hPa North 13.0 mph /  20.9 km/h 22.5 mph /  36.2 km/h 73 % 0.0 in /  0 mm
06:15 -1.1 °F /  -18.4 °C -5.3 °F /  -20.7 °C 1012.4 in /  34279.9 hPa ENE 17.7 mph /  28.5 km/h 19.3 mph /  31.1 km/h 73 % 0.0 in /  0 mm
06:21 -1.1 °F /  -18.4 °C -5.3 °F /  -20.7 °C 1012.4 in /  34279.9 hPa NE 13.0 mph /  20.9 km/h 20.9 mph /  33.6 km/h 73 % 0.0 in /  0 mm
06:27 -1.2 °F /  -18.4 °C -5.4 °F /  -20.8 °C 1012.4 in /  34279.9 hPa NE 1.4 mph /  2.3 km/h 24.1 mph /  38.8 km/h 73 % 0.0 in /  0 mm
06:33 -1.2 °F /  -18.4 °C -5.4 °F /  -20.8 °C 1012.8 in /  34293.4 hPa NE 3.2 mph /  5.1 km/h 19.3 mph /  31.1 km/h 73 % 0.0 in /  0 mm
06:39 -1.2 °F /  -18.4 °C -5.4 °F /  -20.8 °C 1012.8 in /  34293.4 hPa North 16.3 mph /  26.2 km/h 20.9 mph /  33.6 km/h 73 % 0.0 in /  0 mm
06:45 -1.2 °F /  -18.4 °C -5.4 °F /  -20.8 °C 1012.8 in /  34293.4 hPa NNE 14.3 mph /  23 km/h 19.3 mph /  31.1 km/h 73 % 0.0 in /  0 mm
06:51 -1.2 °F /  -18.4 °C -5.4 °F /  -20.8 °C 1012.8 in /  34293.4 hPa NNW 7.9 mph /  12.7 km/h 22.5 mph /  36.2 km/h 73 % 0.0 in /  0 mm
06:57 -1.2 °F /  -18.4 °C -5.4 °F /  -20.8 °C 1012.8 in /  34293.4 hPa ESE 6.4 mph /  10.3 km/h 20.9 mph /  33.6 km/h 73 % 0.0 in /  0 mm
07:03 -1.2 °F /  -18.4 °C -5.4 °F /  -20.8 °C 1012.4 in /  34279.9 hPa North 13.0 mph /  20.9 km/h 20.9 mph /  33.6 km/h 73 % 0.0 in /  0 mm
07:09 -1.3 °F /  -18.5 °C -5.5 °F /  -20.8 °C 1012.8 in /  34293.4 hPa NNE 7.9 mph /  12.7 km/h 17.7 mph /  28.5 km/h 73 % 0.0 in /  0 mm
07:15 -1.3 °F /  -18.5 °C -5.3 °F /  -20.7 °C 1012.8 in /  34293.4 hPa NE 9.7 mph /  15.6 km/h 14.5 mph /  23.3 km/h 74 % 0.0 in /  0 mm
07:21 -1.3 °F /  -18.5 °C -5.5 °F /  -20.8 °C 1012.8 in /  34293.4 hPa NE 4.7 mph /  7.6 km/h 17.7 mph /  28.5 km/h 73 % 0.0 in /  0 mm
07:27 -1.4 °F /  -18.6 °C -5.4 °F /  -20.8 °C 1012.8 in /  34293.4 hPa ENE 6.4 mph /  10.3 km/h 16.1 mph /  25.9 km/h 74 % 0.0 in /  0 mm
07:33 -1.4 °F /  -18.6 °C -5.4 °F /  -20.8 °C 1012.8 in /  34293.4 hPa ESE 4.7 mph /  7.6 km/h 11.3 mph /  18.2 km/h 74 % 0.0 in /  0 mm
07:39 -1.6 °F /  -18.7 °C -5.6 °F /  -20.9 °C 1012.8 in /  34293.4 hPa NE 11.1 mph /  17.9 km/h 12.9 mph /  20.8 km/h 74 % 0.0 in /  0 mm
07:45 -1.6 °F /  -18.7 °C -5.6 °F /  -20.9 °C 1012.8 in /  34293.4 hPa NNE 9.7 mph /  15.6 km/h 17.7 mph /  28.5 km/h 74 % 0.0 in /  0 mm
07:51 -1.7 °F /  -18.7 °C -5.7 °F /  -20.9 °C 1012.8 in /  34293.4 hPa ENE 4.7 mph /  7.6 km/h 19.3 mph /  31.1 km/h 74 % 0.0 in /  0 mm
07:57 -1.7 °F /  -18.7 °C -5.5 °F /  -20.8 °C 1012.8 in /  34293.4 hPa NNE 11.1 mph /  17.9 km/h 11.3 mph /  18.2 km/h 75 % 0.0 in /  0 mm
08:03 -1.7 °F /  -18.7 °C -5.5 °F /  -20.8 °C 1012.8 in /  34293.4 hPa NE 3.2 mph /  5.1 km/h 12.9 mph /  20.8 km/h 75 % 0.0 in /  0 mm
08:09 -1.7 °F /  -18.7 °C -5.5 °F /  -20.8 °C 1012.8 in /  34293.4 hPa NE 4.7 mph /  7.6 km/h 12.9 mph /  20.8 km/h 75 % 0.0 in /  0 mm
08:15 -1.7 °F /  -18.7 °C -5.5 °F /  -20.8 °C 1012.8 in /  34293.4 hPa NE 11.1 mph /  17.9 km/h 24.1 mph /  38.8 km/h 75 % 0.0 in /  0 mm
08:21 -1.7 °F /  -18.7 °C -5.7 °F /  -20.9 °C 1012.8 in /  34293.4 hPa NNE 11.1 mph /  17.9 km/h 16.1 mph /  25.9 km/h 74 % 0.0 in /  0 mm
08:27 -1.7 °F /  -18.7 °C -5.5 °F /  -20.8 °C 1012.8 in /  34293.4 hPa NNE 6.4 mph /  10.3 km/h 17.7 mph /  28.5 km/h 75 % 0.0 in /  0 mm
08:33 -1.7 °F /  -18.7 °C -5.5 °F /  -20.8 °C 1012.8 in /  34293.4 hPa North 4.7 mph /  7.6 km/h 12.9 mph /  20.8 km/h 75 % 0.0 in /  0 mm
08:39 -1.8 °F /  -18.8 °C -5.6 °F /  -20.9 °C 1013.1 in /  34303.6 hPa NNE 4.7 mph /  7.6 km/h 17.7 mph /  28.5 km/h 75 % 0.0 in /  0 mm
08:45 -1.8 °F /  -18.8 °C -5.6 °F /  -20.9 °C 1013.1 in /  34303.6 hPa NNE 13.0 mph /  20.9 km/h 20.9 mph /  33.6 km/h 75 % 0.0 in /  0 mm
08:51 -1.7 °F /  -18.7 °C -5.5 °F /  -20.8 °C 1013.1 in /  34303.6 hPa NE 9.7 mph /  15.6 km/h 16.1 mph /  25.9 km/h 75 % 0.0 in /  0 mm
08:57 -1.7 °F /  -18.7 °C -5.5 °F /  -20.8 °C 1013.1 in /  34303.6 hPa ENE 6.4 mph /  10.3 km/h 19.3 mph /  31.1 km/h 75 % 0.0 in /  0 mm
09:03 -1.8 °F /  -18.8 °C -5.6 °F /  -20.9 °C 1013.1 in /  34303.6 hPa ENE 6.4 mph /  10.3 km/h 27.4 mph /  44.1 km/h 75 % 0.0 in /  0 mm
09:09 -1.8 °F /  -18.8 °C -5.6 °F /  -20.9 °C 1013.1 in /  34303.6 hPa NE 14.3 mph /  23 km/h 20.9 mph /  33.6 km/h 75 % 0.0 in /  0 mm
09:15 -1.7 °F /  -18.7 °C -5.5 °F /  -20.8 °C 1013.1 in /  34303.6 hPa NNE 9.7 mph /  15.6 km/h 22.5 mph /  36.2 km/h 75 % 0.0 in /  0 mm
09:21 -1.7 °F /  -18.7 °C -5.5 °F /  -20.8 °C 1013.1 in /  34303.6 hPa NE 9.7 mph /  15.6 km/h 20.9 mph /  33.6 km/h 75 % 0.0 in /  0 mm
09:27 -1.6 °F /  -18.7 °C -5.4 °F /  -20.8 °C 1013.1 in /  34303.6 hPa NNE 13.0 mph /  20.9 km/h 22.5 mph /  36.2 km/h 75 % 0.0 in /  0 mm
09:33 -1.6 °F /  -18.7 °C -5.6 °F /  -20.9 °C 1013.1 in /  34303.6 hPa NNE 17.7 mph /  28.5 km/h 32.2 mph /  51.8 km/h 74 % 0.0 in /  0 mm
09:39 -1.6 °F /  -18.7 °C -5.4 °F /  -20.8 °C 1013.1 in /  34303.6 hPa NE 6.4 mph /  10.3 km/h 19.3 mph /  31.1 km/h 75 % 0.0 in /  0 mm
09:45 -1.5 °F /  -18.6 °C -5.4 °F /  -20.8 °C 1013.1 in /  34303.6 hPa NE 16.3 mph /  26.2 km/h 22.5 mph /  36.2 km/h 75 % 0.0 in /  0 mm
09:51 -1.5 °F /  -18.6 °C -5.5 °F /  -20.8 °C 1013.1 in /  34303.6 hPa NNE 11.1 mph /  17.9 km/h 29.0 mph /  46.7 km/h 74 % 0.0 in /  0 mm
09:57 -1.4 °F /  -18.6 °C -5.3 °F /  -20.7 °C 1013.1 in /  34303.6 hPa NE 17.7 mph /  28.5 km/h 19.3 mph /  31.1 km/h 75 % 0.0 in /  0 mm
10:03 -1.4 °F /  -18.6 °C -5.4 °F /  -20.8 °C 1013.1 in /  34303.6 hPa NNE 16.3 mph /  26.2 km/h 27.4 mph /  44.1 km/h 74 % 0.0 in /  0 mm
10:10 -1.4 °F /  -18.6 °C -5.4 °F /  -20.8 °C 1013.1 in /  34303.6 hPa NE 6.4 mph /  10.3 km/h 22.5 mph /  36.2 km/h 74 % 0.0 in /  0 mm
10:15 -1.4 °F /  -18.6 °C -5.4 °F /  -20.8 °C 1013.1 in /  34303.6 hPa NNE 20.9 mph /  33.6 km/h 24.1 mph /  38.8 km/h 74 % 0.0 in /  0 mm
10:21 -1.3 °F /  -18.5 °C -5.3 °F /  -20.7 °C 1013.1 in /  34303.6 hPa NE 16.3 mph /  26.2 km/h 22.5 mph /  36.2 km/h 74 % 0.0 in /  0 mm
10:27 -1.2 °F /  -18.4 °C -5.2 °F /  -20.7 °C 1013.4 in /  34313.7 hPa ENE 9.7 mph /  15.6 km/h 22.5 mph /  36.2 km/h 74 % 0.0 in /  0 mm
10:33 -1.2 °F /  -18.4 °C -5.2 °F /  -20.7 °C 1013.4 in /  34313.7 hPa NE 3.2 mph /  5.1 km/h 19.3 mph /  31.1 km/h 74 % 0.0 in /  0 mm
10:40 -1.1 °F /  -18.4 °C -5.0 °F /  -20.6 °C 1013.1 in /  34303.6 hPa NE 7.9 mph /  12.7 km/h 16.1 mph /  25.9 km/h 75 % 0.0 in /  0 mm
10:46 -1.0 °F /  -18.3 °C -5.0 °F /  -20.6 °C 1013.1 in /  34303.6 hPa ENE 9.7 mph /  15.6 km/h 17.7 mph /  28.5 km/h 74 % 0.0 in /  0 mm
10:52 -0.6 °F /  -18.1 °C -4.7 °F /  -20.4 °C 1013.1 in /  34303.6 hPa NE 13.0 mph /  20.9 km/h 16.1 mph /  25.9 km/h 74 % 0.0 in /  0 mm
10:58 -0.4 °F /  -18 °C -4.6 °F /  -20.3 °C 1013.1 in /  34303.6 hPa ENE 19.5 mph /  31.4 km/h 19.5 mph /  31.4 km/h 73 % 0.0 in /  0 mm
11:04 -0.3 °F /  -17.9 °C -4.7 °F /  -20.4 °C 1013.1 in /  34303.6 hPa NNE 7.9 mph /  12.7 km/h 17.7 mph /  28.5 km/h 72 % 0.0 in /  0 mm
11:10 -0.3 °F /  -17.9 °C -4.7 °F /  -20.4 °C 1013.1 in /  34303.6 hPa East 9.7 mph /  15.6 km/h 17.7 mph /  28.5 km/h 72 % 0.0 in /  0 mm
11:16 -0.4 °F /  -18 °C -4.8 °F /  -20.4 °C 1013.1 in /  34303.6 hPa NNE 9.7 mph /  15.6 km/h 19.3 mph /  31.1 km/h 72 % 0.0 in /  0 mm
11:22 -0.4 °F /  -18 °C -4.8 °F /  -20.4 °C 1013.1 in /  34303.6 hPa NE 6.4 mph /  10.3 km/h 19.3 mph /  31.1 km/h 72 % 0.0 in /  0 mm
11:28 -0.2 °F /  -17.9 °C -4.6 °F /  -20.3 °C 1013.1 in /  34303.6 hPa NNE 14.3 mph /  23 km/h 17.7 mph /  28.5 km/h 72 % 0.0 in /  0 mm
11:34 -0.2 °F /  -17.9 °C -4.6 °F /  -20.3 °C 1013.1 in /  34303.6 hPa NE 16.3 mph /  26.2 km/h 19.3 mph /  31.1 km/h 72 % 0.0 in /  0 mm
11:40 -0.1 °F /  -17.8 °C -4.7 °F /  -20.4 °C 1013.1 in /  34303.6 hPa NE 16.3 mph /  26.2 km/h 19.3 mph /  31.1 km/h 71 % 0.0 in /  0 mm
11:46 0.0 °F /  -17.8 °C -4.6 °F /  -20.3 °C 1013.1 in /  34303.6 hPa North 7.9 mph /  12.7 km/h 17.7 mph /  28.5 km/h 71 % 0.0 in /  0 mm
11:52 0.2 °F /  -17.7 °C -4.6 °F /  -20.3 °C 1012.8 in /  34293.4 hPa ENE 6.4 mph /  10.3 km/h 17.7 mph /  28.5 km/h 70 % 0.0 in /  0 mm
11:58 0.5 °F /  -17.5 °C -4.1 °F /  -20.1 °C 1012.8 in /  34293.4 hPa NNE 19.5 mph /  31.4 km/h 20.9 mph /  33.6 km/h 71 % 0.0 in /  0 mm
12:04 0.8 °F /  -17.3 °C -3.9 °F /  -19.9 °C 1012.8 in /  34293.4 hPa NE 9.7 mph /  15.6 km/h 16.1 mph /  25.9 km/h 71 % 0.0 in /  0 mm
12:10 0.9 °F /  -17.3 °C -4.1 °F /  -20.1 °C 1012.8 in /  34293.4 hPa NNE 17.7 mph /  28.5 km/h 19.3 mph /  31.1 km/h 69 % 0.0 in /  0 mm
12:16 0.8 °F /  -17.3 °C -4.0 °F /  -20 °C 1012.8 in /  34293.4 hPa NNE 19.5 mph /  31.4 km/h 20.9 mph /  33.6 km/h 70 % 0.0 in /  0 mm
12:22 0.9 °F /  -17.3 °C -4.1 °F /  -20.1 °C 1012.8 in /  34293.4 hPa NNE 13.0 mph /  20.9 km/h 20.9 mph /  33.6 km/h 69 % 0.0 in /  0 mm
12:28 1.0 °F /  -17.2 °C -3.9 °F /  -19.9 °C 1012.8 in /  34293.4 hPa East 14.3 mph /  23 km/h 17.7 mph /  28.5 km/h 70 % 0.0 in /  0 mm
12:34 1.2 °F /  -17.1 °C -3.9 °F /  -19.9 °C 1012.8 in /  34293.4 hPa North 7.9 mph /  12.7 km/h 16.1 mph /  25.9 km/h 69 % 0.0 in /  0 mm
12:40 1.3 °F /  -17.1 °C -4.0 °F /  -20 °C 1012.8 in /  34293.4 hPa East 4.7 mph /  7.6 km/h 17.7 mph /  28.5 km/h 68 % 0.0 in /  0 mm
12:46 1.1 °F /  -17.2 °C -4.0 °F /  -20 °C 1012.8 in /  34293.4 hPa North 9.7 mph /  15.6 km/h 20.9 mph /  33.6 km/h 69 % 0.0 in /  0 mm
12:52 1.3 °F /  -17.1 °C -3.8 °F /  -19.9 °C 1012.4 in /  34279.9 hPa NNE 11.1 mph /  17.9 km/h 19.3 mph /  31.1 km/h 69 % 0.0 in /  0 mm
12:58 1.6 °F /  -16.9 °C -3.9 °F /  -19.9 °C 1012.8 in /  34293.4 hPa NNE 14.3 mph /  23 km/h 22.5 mph /  36.2 km/h 67 % 0.0 in /  0 mm
13:04 1.2 °F /  -17.1 °C -4.1 °F /  -20.1 °C 1012.8 in /  34293.4 hPa NNE 7.9 mph /  12.7 km/h 12.9 mph /  20.8 km/h 68 % 0.0 in /  0 mm
13:10 1.4 °F /  -17 °C -3.7 °F /  -19.8 °C 1012.4 in /  34279.9 hPa NNE 20.9 mph /  33.6 km/h 24.1 mph /  38.8 km/h 69 % 0.0 in /  0 mm
13:16 1.3 °F /  -17.1 °C -4.0 °F /  -20 °C 1012.8 in /  34293.4 hPa East 7.9 mph /  12.7 km/h 19.3 mph /  31.1 km/h 68 % 0.0 in /  0 mm
13:22 1.3 °F /  -17.1 °C -3.8 °F /  -19.9 °C 1012.4 in /  34279.9 hPa NE 13.0 mph /  20.9 km/h 24.1 mph /  38.8 km/h 69 % 0.0 in /  0 mm
13:28 1.5 °F /  -16.9 °C -3.6 °F /  -19.8 °C 1012.4 in /  34279.9 hPa NNE 7.9 mph /  12.7 km/h 17.7 mph /  28.5 km/h 69 % 0.0 in /  0 mm
13:34 1.5 °F /  -16.9 °C -3.8 °F /  -19.9 °C 1012.4 in /  34279.9 hPa NE 6.4 mph /  10.3 km/h 20.9 mph /  33.6 km/h 68 % 0.0 in /  0 mm
13:40 1.3 °F /  -17.1 °C -4.2 °F /  -20.1 °C 1012.4 in /  34279.9 hPa NNE 9.7 mph /  15.6 km/h 24.1 mph /  38.8 km/h 67 % 0.0 in /  0 mm
13:46 1.2 °F /  -17.1 °C -4.1 °F /  -20.1 °C 1012.4 in /  34279.9 hPa NE 7.9 mph /  12.7 km/h 16.1 mph /  25.9 km/h 68 % 0.0 in /  0 mm
13:52 1.2 °F /  -17.1 °C -3.9 °F /  -19.9 °C 1012.4 in /  34279.9 hPa NNE 9.7 mph /  15.6 km/h 16.1 mph /  25.9 km/h 69 % 0.0 in /  0 mm
13:58 1.3 °F /  -17.1 °C -3.8 °F /  -19.9 °C 1012.4 in /  34279.9 hPa NNE 6.4 mph /  10.3 km/h 16.1 mph /  25.9 km/h 69 % 0.0 in /  0 mm
14:04 1.2 °F /  -17.1 °C -4.1 °F /  -20.1 °C 1012.4 in /  34279.9 hPa NE 20.9 mph /  33.6 km/h 20.9 mph /  33.6 km/h 68 % 0.0 in /  0 mm
14:10 1.1 °F /  -17.2 °C -4.1 °F /  -20.1 °C 1012.4 in /  34279.9 hPa NE 16.3 mph /  26.2 km/h 25.7 mph /  41.4 km/h 68 % 0.0 in /  0 mm
14:16 1.1 °F /  -17.2 °C -4.3 °F /  -20.2 °C 1012.4 in /  34279.9 hPa NE 11.1 mph /  17.9 km/h 20.9 mph /  33.6 km/h 67 % 0.0 in /  0 mm
14:22 1.1 °F /  -17.2 °C -4.0 °F /  -20 °C 1012.4 in /  34279.9 hPa NNE 9.7 mph /  15.6 km/h 20.9 mph /  33.6 km/h 69 % 0.0 in /  0 mm
14:28 1.1 °F /  -17.2 °C -4.1 °F /  -20.1 °C 1012.4 in /  34279.9 hPa NE 11.1 mph /  17.9 km/h 14.5 mph /  23.3 km/h 68 % 0.0 in /  0 mm
14:34 1.2 °F /  -17.1 °C -3.7 °F /  -19.8 °C 1012.4 in /  34279.9 hPa NNE 19.5 mph /  31.4 km/h 24.1 mph /  38.8 km/h 70 % 0.0 in /  0 mm
14:40 1.2 °F /  -17.1 °C -3.9 °F /  -19.9 °C 1012.4 in /  34279.9 hPa NNE 11.1 mph /  17.9 km/h 17.7 mph /  28.5 km/h 69 % 0.0 in /  0 mm
14:46 1.1 °F /  -17.2 °C -4.1 °F /  -20.1 °C 1012.4 in /  34279.9 hPa NNE 13.0 mph /  20.9 km/h 19.3 mph /  31.1 km/h 68 % 0.0 in /  0 mm
14:52 1.1 °F /  -17.2 °C -4.0 °F /  -20 °C 1012.4 in /  34279.9 hPa NE 9.7 mph /  15.6 km/h 11.3 mph /  18.2 km/h 69 % 0.0 in /  0 mm
14:58 1.2 °F /  -17.1 °C -3.9 °F /  -19.9 °C 1012.1 in /  34269.7 hPa NNE 11.1 mph /  17.9 km/h 12.9 mph /  20.8 km/h 69 % 0.0 in /  0 mm
15:04 1.2 °F /  -17.1 °C -4.1 °F /  -20.1 °C 1012.4 in /  34279.9 hPa NE 9.7 mph /  15.6 km/h 22.5 mph /  36.2 km/h 68 % 0.0 in /  0 mm
15:10 1.2 °F /  -17.1 °C -3.7 °F /  -19.8 °C 1012.4 in /  34279.9 hPa NE 13.0 mph /  20.9 km/h 13.0 mph /  20.9 km/h 70 % 0.0 in /  0 mm
15:16 1.2 °F /  -17.1 °C -3.9 °F /  -19.9 °C 1012.1 in /  34269.7 hPa East 7.9 mph /  12.7 km/h 14.5 mph /  23.3 km/h 69 % 0.0 in /  0 mm
15:22 1.3 °F /  -17.1 °C -4.2 °F /  -20.1 °C 1012.1 in /  34269.7 hPa ENE 16.3 mph /  26.2 km/h 17.7 mph /  28.5 km/h 67 % 0.0 in /  0 mm
15:28 1.3 °F /  -17.1 °C -3.8 °F /  -19.9 °C 1012.1 in /  34269.7 hPa NE 3.2 mph /  5.1 km/h 14.5 mph /  23.3 km/h 69 % 0.0 in /  0 mm
15:34 1.3 °F /  -17.1 °C -4.0 °F /  -20 °C 1012.4 in /  34279.9 hPa East 13.0 mph /  20.9 km/h 19.3 mph /  31.1 km/h 68 % 0.0 in /  0 mm
15:40 1.2 °F /  -17.1 °C -4.1 °F /  -20.1 °C 1012.4 in /  34279.9 hPa ENE 14.3 mph /  23 km/h 24.1 mph /  38.8 km/h 68 % 0.0 in /  0 mm
15:46 1.1 °F /  -17.2 °C -4.1 °F /  -20.1 °C 1012.4 in /  34279.9 hPa ESE 13.0 mph /  20.9 km/h 19.3 mph /  31.1 km/h 68 % 0.0 in /  0 mm
15:52 1.1 °F /  -17.2 °C -4.1 °F /  -20.1 °C 1012.4 in /  34279.9 hPa ENE 4.7 mph /  7.6 km/h 19.3 mph /  31.1 km/h 68 % 0.0 in /  0 mm
15:58 1.1 °F /  -17.2 °C -4.1 °F /  -20.1 °C 1012.4 in /  34279.9 hPa NNE 13.0 mph /  20.9 km/h 20.9 mph /  33.6 km/h 68 % 0.0 in /  0 mm
16:04 1.1 °F /  -17.2 °C -4.0 °F /  -20 °C 1012.4 in /  34279.9 hPa NE 11.1 mph /  17.9 km/h 22.5 mph /  36.2 km/h 69 % 0.0 in /  0 mm
16:10 1.1 °F /  -17.2 °C -4.1 °F /  -20.1 °C 1012.1 in /  34269.7 hPa NE 19.5 mph /  31.4 km/h 22.5 mph /  36.2 km/h 68 % 0.0 in /  0 mm
16:16 1.0 °F /  -17.2 °C -4.2 °F /  -20.1 °C 1012.1 in /  34269.7 hPa NE 9.7 mph /  15.6 km/h 19.3 mph /  31.1 km/h 68 % 0.0 in /  0 mm
16:22 0.9 °F /  -17.3 °C -4.3 °F /  -20.2 °C 1012.1 in /  34269.7 hPa ENE 6.4 mph /  10.3 km/h 17.7 mph /  28.5 km/h 68 % 0.0 in /  0 mm
16:28 0.9 °F /  -17.3 °C -4.3 °F /  -20.2 °C 1012.1 in /  34269.7 hPa NE 16.3 mph /  26.2 km/h 19.3 mph /  31.1 km/h 68 % 0.0 in /  0 mm
16:34 0.9 °F /  -17.3 °C -4.0 °F /  -20 °C 1012.1 in /  34269.7 hPa NE 17.7 mph /  28.5 km/h 20.9 mph /  33.6 km/h 70 % 0.0 in /  0 mm
16:40 0.9 °F /  -17.3 °C -4.1 °F /  -20.1 °C 1012.1 in /  34269.7 hPa East 3.2 mph /  5.1 km/h 14.5 mph /  23.3 km/h 69 % 0.0 in /  0 mm
16:46 0.9 °F /  -17.3 °C -4.1 °F /  -20.1 °C 1012.1 in /  34269.7 hPa NE 17.7 mph /  28.5 km/h 17.7 mph /  28.5 km/h 69 % 0.0 in /  0 mm
16:52 0.9 °F /  -17.3 °C -4.1 °F /  -20.1 °C 1012.1 in /  34269.7 hPa NE 11.1 mph /  17.9 km/h 14.5 mph /  23.3 km/h 69 % 0.0 in /  0 mm
16:58 0.9 °F /  -17.3 °C -4.3 °F /  -20.2 °C 1012.1 in /  34269.7 hPa North 7.9 mph /  12.7 km/h 12.9 mph /  20.8 km/h 68 % 0.0 in /  0 mm
17:04 0.9 °F /  -17.3 °C -4.1 °F /  -20.1 °C 1012.1 in /  34269.7 hPa NE 7.9 mph /  12.7 km/h 11.3 mph /  18.2 km/h 69 % 0.0 in /  0 mm
17:10 0.9 °F /  -17.3 °C -4.1 °F /  -20.1 °C 1012.1 in /  34269.7 hPa NNE 13.0 mph /  20.9 km/h 16.1 mph /  25.9 km/h 69 % 0.0 in /  0 mm
17:16 0.9 °F /  -17.3 °C -4.0 °F /  -20 °C 1012.1 in /  34269.7 hPa ENE 14.3 mph /  23 km/h 19.3 mph /  31.1 km/h 70 % 0.0 in /  0 mm
17:22 0.9 °F /  -17.3 °C -4.1 °F /  -20.1 °C 1012.1 in /  34269.7 hPa NE 11.1 mph /  17.9 km/h 17.7 mph /  28.5 km/h 69 % 0.0 in /  0 mm
17:28 0.9 °F /  -17.3 °C -4.1 °F /  -20.1 °C 1012.1 in /  34269.7 hPa NE 4.7 mph /  7.6 km/h 17.7 mph /  28.5 km/h 69 % 0.0 in /  0 mm
17:34 0.9 °F /  -17.3 °C -4.1 °F /  -20.1 °C 1012.1 in /  34269.7 hPa NNE 13.0 mph /  20.9 km/h 19.3 mph /  31.1 km/h 69 % 0.0 in /  0 mm
17:40 0.9 °F /  -17.3 °C -4.1 °F /  -20.1 °C 1012.1 in /  34269.7 hPa Calm   11.3 mph /  18.2 km/h 69 % 0.0 in /  0 mm
17:46 0.9 °F /  -17.3 °C -4.1 °F /  -20.1 °C 1012.1 in /  34269.7 hPa NNE 4.7 mph /  7.6 km/h 12.9 mph /  20.8 km/h 69 % 0.0 in /  0 mm
17:52 0.9 °F /  -17.3 °C -4.0 °F /  -20 °C 1012.1 in /  34269.7 hPa NE 9.7 mph /  15.6 km/h 12.9 mph /  20.8 km/h 70 % 0.0 in /  0 mm
17:58 0.9 °F /  -17.3 °C -4.1 °F /  -20.1 °C 1012.1 in /  34269.7 hPa NE 7.9 mph /  12.7 km/h 16.1 mph /  25.9 km/h 69 % 0.0 in /  0 mm
18:04 0.9 °F /  -17.3 °C -4.0 °F /  -20 °C 1012.4 in /  34279.9 hPa ENE 1.4 mph /  2.3 km/h 6.4 mph /  10.3 km/h 70 % 0.0 in /  0 mm
18:10 0.9 °F /  -17.3 °C -4.0 °F /  -20 °C 1012.4 in /  34279.9 hPa NE 1.4 mph /  2.3 km/h 9.7 mph /  15.6 km/h 70 % 0.0 in /  0 mm
18:16 0.9 °F /  -17.3 °C -3.8 °F /  -19.9 °C 1012.4 in /  34279.9 hPa NE 1.4 mph /  2.3 km/h 4.8 mph /  7.7 km/h 71 % 0.0 in /  0 mm
18:22 0.9 °F /  -17.3 °C -3.8 °F /  -19.9 °C 1012.4 in /  34279.9 hPa ENE 4.7 mph /  7.6 km/h 9.7 mph /  15.6 km/h 71 % 0.0 in /  0 mm
18:28 0.9 °F /  -17.3 °C -3.8 °F /  -19.9 °C 1012.4 in /  34279.9 hPa NE 4.7 mph /  7.6 km/h 8.0 mph /  12.9 km/h 71 % 0.0 in /  0 mm
18:34 0.8 °F /  -17.3 °C -3.7 °F /  -19.8 °C 1012.4 in /  34279.9 hPa NE 3.2 mph /  5.1 km/h 4.8 mph /  7.7 km/h 72 % 0.0 in /  0 mm
18:40 0.8 °F /  -17.3 °C -3.5 °F /  -19.7 °C 1012.4 in /  34279.9 hPa ENE 1.4 mph /  2.3 km/h 3.2 mph /  5.1 km/h 73 % 0.0 in /  0 mm
18:46 0.7 °F /  -17.4 °C -3.6 °F /  -19.8 °C 1012.4 in /  34279.9 hPa NE 4.7 mph /  7.6 km/h 4.8 mph /  7.7 km/h 73 % 0.0 in /  0 mm
18:52 0.7 °F /  -17.4 °C -3.6 °F /  -19.8 °C 1012.4 in /  34279.9 hPa Calm   4.8 mph /  7.7 km/h 73 % 0.0 in /  0 mm
18:58 0.7 °F /  -17.4 °C -3.4 °F /  -19.7 °C 1012.4 in /  34279.9 hPa NE 1.4 mph /  2.3 km/h 3.2 mph /  5.1 km/h 74 % 0.0 in /  0 mm
19:04 0.7 °F /  -17.4 °C -3.6 °F /  -19.8 °C 1012.8 in /  34293.4 hPa NE 3.2 mph /  5.1 km/h 8.0 mph /  12.9 km/h 73 % 0.0 in /  0 mm
19:10 0.7 °F /  -17.4 °C -3.6 °F /  -19.8 °C 1012.8 in /  34293.4 hPa NE 3.2 mph /  5.1 km/h 4.8 mph /  7.7 km/h 73 % 0.0 in /  0 mm
19:16 0.7 °F /  -17.4 °C -3.6 °F /  -19.8 °C 1012.8 in /  34293.4 hPa NE 3.2 mph /  5.1 km/h 4.8 mph /  7.7 km/h 73 % 0.0 in /  0 mm
19:22 0.7 °F /  -17.4 °C -3.6 °F /  -19.8 °C 1012.8 in /  34293.4 hPa NE 1.4 mph /  2.3 km/h 3.2 mph /  5.1 km/h 73 % 0.0 in /  0 mm
19:28 0.7 °F /  -17.4 °C -3.4 °F /  -19.7 °C 1012.8 in /  34293.4 hPa NE 1.4 mph /  2.3 km/h 3.2 mph /  5.1 km/h 74 % 0.0 in /  0 mm
19:34 0.7 °F /  -17.4 °C -3.4 °F /  -19.7 °C 1012.8 in /  34293.4 hPa NE 1.4 mph /  2.3 km/h 3.2 mph /  5.1 km/h 74 % 0.0 in /  0 mm
19:40 0.7 °F /  -17.4 °C -3.4 °F /  -19.7 °C 1012.8 in /  34293.4 hPa NNE 1.4 mph /  2.3 km/h 4.8 mph /  7.7 km/h 74 % 0.0 in /  0 mm
19:46 0.7 °F /  -17.4 °C -3.4 °F /  -19.7 °C 1012.4 in /  34279.9 hPa NNE 1.4 mph /  2.3 km/h 3.2 mph /  5.1 km/h 74 % 0.0 in /  0 mm
19:52 0.7 °F /  -17.4 °C -3.4 °F /  -19.7 °C 1012.4 in /  34279.9 hPa NNE 1.4 mph /  2.3 km/h 3.2 mph /  5.1 km/h 74 % 0.0 in /  0 mm
19:58 0.6 °F /  -17.4 °C -3.3 °F /  -19.6 °C 1012.4 in /  34279.9 hPa NE 1.4 mph /  2.3 km/h 3.2 mph /  5.1 km/h 75 % 0.0 in /  0 mm
20:04 0.7 °F /  -17.4 °C -3.6 °F /  -19.8 °C 1012.4 in /  34279.9 hPa NNE 4.7 mph /  7.6 km/h 4.8 mph /  7.7 km/h 73 % 0.0 in /  0 mm
20:10 0.7 °F /  -17.4 °C -3.6 °F /  -19.8 °C 1012.4 in /  34279.9 hPa NE 4.7 mph /  7.6 km/h 4.8 mph /  7.7 km/h 73 % 0.0 in /  0 mm
20:17 0.7 °F /  -17.4 °C -3.6 °F /  -19.8 °C 1012.4 in /  34279.9 hPa NNE 3.2 mph /  5.1 km/h 4.8 mph /  7.7 km/h 73 % 0.0 in /  0 mm
20:23 0.8 °F /  -17.3 °C -3.7 °F /  -19.8 °C 1012.4 in /  34279.9 hPa NE 3.2 mph /  5.1 km/h 6.4 mph /  10.3 km/h 72 % 0.0 in /  0 mm
20:29 0.8 °F /  -17.3 °C -3.5 °F /  -19.7 °C 1012.4 in /  34279.9 hPa NE 3.2 mph /  5.1 km/h 6.4 mph /  10.3 km/h 73 % 0.0 in /  0 mm
20:35 0.7 °F /  -17.4 °C -3.6 °F /  -19.8 °C 1012.4 in /  34279.9 hPa NE 4.7 mph /  7.6 km/h 6.4 mph /  10.3 km/h 73 % 0.0 in /  0 mm
20:41 0.8 °F /  -17.3 °C -3.5 °F /  -19.7 °C 1012.4 in /  34279.9 hPa NE 1.4 mph /  2.3 km/h 3.2 mph /  5.1 km/h 73 % 0.0 in /  0 mm
20:47 0.8 °F /  -17.3 °C -3.7 °F /  -19.8 °C 1012.4 in /  34279.9 hPa NE 4.7 mph /  7.6 km/h 6.4 mph /  10.3 km/h 72 % 0.0 in /  0 mm
20:53 0.8 °F /  -17.3 °C -3.5 °F /  -19.7 °C 1012.4 in /  34279.9 hPa NE 3.2 mph /  5.1 km/h 3.2 mph /  5.1 km/h 73 % 0.0 in /  0 mm
20:59 0.7 °F /  -17.4 °C -3.4 °F /  -19.7 °C 1012.4 in /  34279.9 hPa NNE 1.4 mph /  2.3 km/h 4.8 mph /  7.7 km/h 74 % 0.0 in /  0 mm
21:05 0.7 °F /  -17.4 °C -3.6 °F /  -19.8 °C 1012.4 in /  34279.9 hPa NE 4.7 mph /  7.6 km/h 6.4 mph /  10.3 km/h 73 % 0.0 in /  0 mm
21:11 0.8 °F /  -17.3 °C -3.7 °F /  -19.8 °C 1012.4 in /  34279.9 hPa NNE 3.2 mph /  5.1 km/h 6.4 mph /  10.3 km/h 72 % 0.0 in /  0 mm
21:17 0.8 °F /  -17.3 °C -3.5 °F /  -19.7 °C 1012.4 in /  34279.9 hPa Calm   8.0 mph /  12.9 km/h 73 % 0.0 in /  0 mm
21:23 0.8 °F /  -17.3 °C -3.7 °F /  -19.8 °C 1012.4 in /  34279.9 hPa NNE 4.7 mph /  7.6 km/h 4.8 mph /  7.7 km/h 72 % 0.0 in /  0 mm
21:30 0.8 °F /  -17.3 °C -3.5 °F /  -19.7 °C 1012.4 in /  34279.9 hPa NNE 1.4 mph /  2.3 km/h 6.4 mph /  10.3 km/h 73 % 0.0 in /  0 mm
21:37 0.8 °F /  -17.3 °C -3.7 °F /  -19.8 °C 1012.4 in /  34279.9 hPa NE 1.4 mph /  2.3 km/h 6.4 mph /  10.3 km/h 72 % 0.0 in /  0 mm
21:43 0.8 °F /  -17.3 °C -3.5 °F /  -19.7 °C 1012.4 in /  34279.9 hPa NE 6.4 mph /  10.3 km/h 6.4 mph /  10.3 km/h 73 % 0.0 in /  0 mm
21:49 0.8 °F /  -17.3 °C -3.7 °F /  -19.8 °C 1012.4 in /  34279.9 hPa NNE 3.2 mph /  5.1 km/h 6.4 mph /  10.3 km/h 72 % 0.0 in /  0 mm
21:55 0.8 °F /  -17.3 °C -3.7 °F /  -19.8 °C 1012.4 in /  34279.9 hPa NE 3.2 mph /  5.1 km/h 3.2 mph /  5.1 km/h 72 % 0.0 in /  0 mm
22:01 0.8 °F /  -17.3 °C -3.7 °F /  -19.8 °C 1012.4 in /  34279.9 hPa NE 3.2 mph /  5.1 km/h 4.8 mph /  7.7 km/h 72 % 0.0 in /  0 mm
22:07 0.8 °F /  -17.3 °C -3.5 °F /  -19.7 °C 1012.1 in /  34269.7 hPa Calm   3.2 mph /  5.1 km/h 73 % 0.0 in /  0 mm
22:13 0.7 °F /  -17.4 °C -3.4 °F /  -19.7 °C 1012.1 in /  34269.7 hPa NE 3.2 mph /  5.1 km/h 4.8 mph /  7.7 km/h 74 % 0.0 in /  0 mm
22:19 0.7 °F /  -17.4 °C -3.4 °F /  -19.7 °C 1012.1 in /  34269.7 hPa NE 4.7 mph /  7.6 km/h 6.4 mph /  10.3 km/h 74 % 0.0 in /  0 mm
22:25 0.7 °F /  -17.4 °C -3.6 °F /  -19.8 °C 1012.1 in /  34269.7 hPa NE 4.7 mph /  7.6 km/h 6.4 mph /  10.3 km/h 73 % 0.0 in /  0 mm
22:31 0.7 °F /  -17.4 °C -3.4 °F /  -19.7 °C 1012.1 in /  34269.7 hPa NE 1.4 mph /  2.3 km/h 4.8 mph /  7.7 km/h 74 % 0.0 in /  0 mm
22:37 0.7 °F /  -17.4 °C -3.4 °F /  -19.7 °C 1012.1 in /  34269.7 hPa NNE 6.4 mph /  10.3 km/h 6.4 mph /  10.3 km/h 74 % 0.0 in /  0 mm
22:43 0.8 °F /  -17.3 °C -3.3 °F /  -19.6 °C 1012.1 in /  34269.7 hPa NE 1.4 mph /  2.3 km/h 6.4 mph /  10.3 km/h 74 % 0.0 in /  0 mm
22:49 0.8 °F /  -17.3 °C -3.5 °F /  -19.7 °C 1012.1 in /  34269.7 hPa ENE 3.2 mph /  5.1 km/h 9.7 mph /  15.6 km/h 73 % 0.0 in /  0 mm
22:55 0.8 °F /  -17.3 °C -3.3 °F /  -19.6 °C 1012.1 in /  34269.7 hPa NE 1.4 mph /  2.3 km/h 6.4 mph /  10.3 km/h 74 % 0.0 in /  0 mm
23:01 0.8 °F /  -17.3 °C -3.3 °F /  -19.6 °C 1012.1 in /  34269.7 hPa NE 3.2 mph /  5.1 km/h 8.0 mph /  12.9 km/h 74 % 0.0 in /  0 mm
23:07 0.8 °F /  -17.3 °C -3.1 °F /  -19.5 °C 1012.1 in /  34269.7 hPa NNE 4.7 mph /  7.6 km/h 9.7 mph /  15.6 km/h 75 % 0.0 in /  0 mm
23:13 0.8 °F /  -17.3 °C -3.1 °F /  -19.5 °C 1012.4 in /  34279.9 hPa NNE 1.4 mph /  2.3 km/h 6.4 mph /  10.3 km/h 75 % 0.0 in /  0 mm
23:19 0.7 °F /  -17.4 °C -3.0 °F /  -19.4 °C 1012.4 in /  34279.9 hPa NE 1.4 mph /  2.3 km/h 3.2 mph /  5.1 km/h 76 % 0.0 in /  0 mm
23:25 0.7 °F /  -17.4 °C -3.0 °F /  -19.4 °C 1012.1 in /  34269.7 hPa NE 3.2 mph /  5.1 km/h 6.4 mph /  10.3 km/h 76 % 0.0 in /  0 mm
23:31 0.7 °F /  -17.4 °C -3.0 °F /  -19.4 °C 1012.1 in /  34269.7 hPa NE 3.2 mph /  5.1 km/h 9.7 mph /  15.6 km/h 76 % 0.0 in /  0 mm
23:37 0.7 °F /  -17.4 °C -3.0 °F /  -19.4 °C 1012.1 in /  34269.7 hPa NE 3.2 mph /  5.1 km/h 6.4 mph /  10.3 km/h 76 % 0.0 in /  0 mm
23:43 0.7 °F /  -17.4 °C -2.9 °F /  -19.4 °C 1012.1 in /  34269.7 hPa ENE 6.4 mph /  10.3 km/h 8.0 mph /  12.9 km/h 77 % 0.0 in /  0 mm
23:49 0.6 °F /  -17.4 °C -3.0 °F /  -19.4 °C 1012.1 in /  34269.7 hPa NE 1.4 mph /  2.3 km/h 8.0 mph /  12.9 km/h 77 % 0.0 in /  0 mm
23:55 0.6 °F /  -17.4 °C -2.8 °F /  -19.3 °C 1012.1 in /  34269.7 hPa ENE 6.4 mph /  10.3 km/h 6.4 mph /  10.3 km/h 78 % 0.0 in /  0 mm
Meteo18
Compliments of Weather Underground - 4 mb

Script developed by  Jim McMurry - jmcmurry@mwt.net Adapted for the template by  Wim van der Kuil - Leuven-Template.eu

You find our weather info also at:

European Weather Network

Weather Underground

Equipment we use:

Weather-station
Davis Vue

Weather-program
Meteobridge

Weather-server
Raspberry PI 2 B+

Provider
1 and 1

Davis Vue

Meteobridge

Raspberry PI 2 B+

1 and 1